createdAt,value
2023-01-11T00:00:02.719Z,4.40
2023-01-11T00:01:02.699Z,4.40
2023-01-11T00:02:02.638Z,4.40
2023-01-11T00:03:03.603Z,4.40
2023-01-11T00:04:03.472Z,4.40
2023-01-11T00:05:03.572Z,4.40
2023-01-11T00:06:03.360Z,4.40
2023-01-11T00:07:03.346Z,4.40
2023-01-11T00:08:03.315Z,4.40
2023-01-11T00:09:03.354Z,4.40
2023-01-11T00:10:03.173Z,4.40
2023-01-11T00:11:03.216Z,4.40
2023-01-11T00:12:03.295Z,4.40
2023-01-11T00:13:03.189Z,4.40
2023-01-11T00:14:03.197Z,4.40
2023-01-11T00:15:03.023Z,4.30
2023-01-11T00:16:03.109Z,4.30
2023-01-11T00:17:03.012Z,4.30
2023-01-11T00:18:03.094Z,4.30
2023-01-11T00:19:02.994Z,4.30
2023-01-11T00:20:02.908Z,4.30
2023-01-11T00:21:02.897Z,4.30
2023-01-11T00:22:02.822Z,4.30
2023-01-11T00:23:02.743Z,4.30
2023-01-11T00:24:03.281Z,4.30
2023-01-11T00:25:03.322Z,4.30
2023-01-11T00:26:03.244Z,4.30
2023-01-11T00:27:03.183Z,4.30
2023-01-11T00:28:03.188Z,4.30
2023-01-11T00:29:03.266Z,4.30
2023-01-11T00:30:03.145Z,4.30
2023-01-11T00:31:03.057Z,4.30
2023-01-11T00:32:02.955Z,4.30
2023-01-11T00:33:02.829Z,4.30
2023-01-11T00:34:02.796Z,4.30
2023-01-11T00:35:02.763Z,4.30
2023-01-11T00:36:02.704Z,4.30
2023-01-11T00:37:02.698Z,4.30
2023-01-11T00:38:03.674Z,4.30
2023-01-11T00:39:03.533Z,4.30
2023-01-11T00:40:03.453Z,4.30
2023-01-11T00:41:03.446Z,4.30
2023-01-11T00:42:03.441Z,4.30
2023-01-11T00:43:03.437Z,4.30
2023-01-11T00:44:03.479Z,4.30
2023-01-11T00:45:03.457Z,4.30
2023-01-11T00:46:03.493Z,4.30
2023-01-11T00:47:03.389Z,4.30
2023-01-11T00:48:03.396Z,4.30
2023-01-11T00:49:03.343Z,4.30
2023-01-11T00:50:03.410Z,4.30
2023-01-11T00:51:03.317Z,4.30
2023-01-11T00:52:03.270Z,4.30
2023-01-11T00:53:03.265Z,4.30
2023-01-11T00:54:03.106Z,4.30
2023-01-11T00:55:03.021Z,4.30
2023-01-11T00:56:02.980Z,4.30
2023-01-11T00:57:02.991Z,4.30
2023-01-11T00:58:02.951Z,4.30
2023-01-11T00:59:02.974Z,4.30
2023-01-11T01:00:02.877Z,4.30
2023-01-11T01:01:02.823Z,4.30
2023-01-11T01:02:02.873Z,4.30
2023-01-11T01:03:02.781Z,4.30
2023-01-11T01:04:02.730Z,4.30
2023-01-11T01:05:02.711Z,4.30
2023-01-11T01:06:02.621Z,4.40
2023-01-11T01:07:02.600Z,4.40
2023-01-11T01:08:02.553Z,4.40
2023-01-11T01:09:02.672Z,4.40
2023-01-11T01:10:03.799Z,4.40
2023-01-11T01:11:02.799Z,4.40
2023-01-11T01:12:02.739Z,4.40
2023-01-11T01:13:02.654Z,4.40
2023-01-11T01:14:02.758Z,4.40
2023-01-11T01:15:02.639Z,4.40
2023-01-11T01:16:02.588Z,4.40
2023-01-11T01:17:03.572Z,4.40
2023-01-11T01:18:03.550Z,4.40
2023-01-11T01:19:03.589Z,4.40
2023-01-11T01:20:03.527Z,4.40
2023-01-11T01:21:03.414Z,4.40
2023-01-11T01:22:03.428Z,4.40
2023-01-11T01:23:03.336Z,4.40
2023-01-11T01:24:03.318Z,4.40
2023-01-11T01:25:03.127Z,4.40
2023-01-11T01:26:03.073Z,4.40
2023-01-11T01:27:03.128Z,4.40
2023-01-11T01:28:03.000Z,4.40
2023-01-11T01:29:02.951Z,4.40
2023-01-11T01:30:02.859Z,4.40
2023-01-11T01:31:02.940Z,4.40
2023-01-11T01:32:02.750Z,4.40
2023-01-11T01:33:02.659Z,4.40
2023-01-11T01:34:02.635Z,4.40
2023-01-11T01:35:03.585Z,4.40
2023-01-11T01:36:03.468Z,4.40
2023-01-11T01:37:03.477Z,4.40
2023-01-11T01:38:03.344Z,4.40
2023-01-11T01:39:03.254Z,4.40
2023-01-11T01:40:03.211Z,4.40
2023-01-11T01:41:03.024Z,4.40
2023-01-11T01:42:03.043Z,4.40
2023-01-11T01:43:03.016Z,4.40
2023-01-11T01:44:02.915Z,4.40
2023-01-11T01:45:03.049Z,4.40
2023-01-11T01:46:03.025Z,4.40
2023-01-11T01:47:02.841Z,4.40
2023-01-11T01:48:02.808Z,4.40
2023-01-11T01:49:02.844Z,4.40
2023-01-11T01:50:02.840Z,4.40
2023-01-11T01:51:02.715Z,4.40
2023-01-11T01:52:02.722Z,4.40
2023-01-11T01:53:02.595Z,4.40
2023-01-11T01:54:03.613Z,4.40
2023-01-11T01:55:03.604Z,4.40
2023-01-11T01:56:03.437Z,4.40
2023-01-11T01:57:02.698Z,4.40
2023-01-11T01:58:02.606Z,4.40
2023-01-11T01:59:03.011Z,4.40
2023-01-11T02:00:02.906Z,4.40
2023-01-11T02:01:02.873Z,4.40
2023-01-11T02:02:02.796Z,4.40
2023-01-11T02:03:02.847Z,4.50
2023-01-11T02:04:02.762Z,4.50
2023-01-11T02:05:02.789Z,4.50
2023-01-11T02:06:02.767Z,4.50
2023-01-11T02:07:02.721Z,4.50
2023-01-11T02:08:02.611Z,4.50
2023-01-11T02:09:02.641Z,4.50
2023-01-11T02:10:02.893Z,4.50
2023-01-11T02:11:02.760Z,4.50
2023-01-11T02:12:02.784Z,4.50
2023-01-11T02:13:02.624Z,4.50
2023-01-11T02:14:02.583Z,4.50
2023-01-11T02:15:02.730Z,4.50
2023-01-11T02:16:03.462Z,4.50
2023-01-11T02:17:03.503Z,4.50
2023-01-11T02:18:03.382Z,4.50
2023-01-11T02:19:03.341Z,4.50
2023-01-11T02:20:03.318Z,4.50
2023-01-11T02:21:03.210Z,4.60
2023-01-11T02:22:03.130Z,4.50
2023-01-11T02:23:03.019Z,4.50
2023-01-11T02:24:02.933Z,4.50
2023-01-11T02:25:03.010Z,4.60
2023-01-11T02:26:02.987Z,4.60
2023-01-11T02:27:03.070Z,4.50
2023-01-11T02:28:03.027Z,4.60
2023-01-11T02:29:02.908Z,4.60
2023-01-11T02:30:02.989Z,4.60
2023-01-11T02:31:03.216Z,4.60
2023-01-11T02:32:03.073Z,4.60
2023-01-11T02:33:03.019Z,4.60
2023-01-11T02:34:02.925Z,4.60
2023-01-11T02:35:03.035Z,4.60
2023-01-11T02:36:02.859Z,4.60
2023-01-11T02:37:02.746Z,4.60
2023-01-11T02:38:02.718Z,4.60
2023-01-11T02:39:02.732Z,4.60
2023-01-11T02:40:02.665Z,4.60
2023-01-11T02:41:02.618Z,4.60
2023-01-11T02:42:03.536Z,4.60
2023-01-11T02:43:03.482Z,4.60
2023-01-11T02:44:03.361Z,4.60
2023-01-11T02:45:03.355Z,4.60
2023-01-11T02:46:03.386Z,4.60
2023-01-11T02:47:03.199Z,4.60
2023-01-11T02:48:03.145Z,4.60
2023-01-11T02:49:03.085Z,4.60
2023-01-11T02:50:03.087Z,4.60
2023-01-11T02:51:03.102Z,4.60
2023-01-11T02:52:03.103Z,4.60
2023-01-11T02:53:02.992Z,4.60
2023-01-11T02:54:02.963Z,4.60
2023-01-11T02:55:02.873Z,4.60
2023-01-11T02:56:02.939Z,4.60
2023-01-11T02:57:02.857Z,4.60
2023-01-11T02:58:02.878Z,4.60
2023-01-11T02:59:02.905Z,4.60
2023-01-11T03:00:02.967Z,4.60
2023-01-11T03:01:02.992Z,4.60
2023-01-11T03:02:02.904Z,4.60
2023-01-11T03:03:02.913Z,4.60
2023-01-11T03:04:02.849Z,4.60
2023-01-11T03:05:02.785Z,4.60
2023-01-11T03:06:02.769Z,4.60
2023-01-11T03:07:02.782Z,4.60
2023-01-11T03:08:02.686Z,4.60
2023-01-11T03:09:02.739Z,4.60
2023-01-11T03:10:02.577Z,4.60
2023-01-11T03:11:03.575Z,4.60
2023-01-11T03:12:03.557Z,4.60
2023-01-11T03:13:03.499Z,4.60
2023-01-11T03:14:03.386Z,4.60
2023-01-11T03:15:03.374Z,4.60
2023-01-11T03:16:03.485Z,4.60
2023-01-11T03:17:03.319Z,4.60
2023-01-11T03:18:03.283Z,4.60
2023-01-11T03:19:03.270Z,4.60
2023-01-11T03:20:03.248Z,4.60
2023-01-11T03:21:03.221Z,4.60
2023-01-11T03:22:03.068Z,4.60
2023-01-11T03:23:03.107Z,4.60
2023-01-11T03:24:02.998Z,4.60
2023-01-11T03:25:02.964Z,4.60
2023-01-11T03:26:03.047Z,4.60
2023-01-11T03:27:02.939Z,4.60
2023-01-11T03:28:02.998Z,4.60
2023-01-11T03:29:02.943Z,4.60
2023-01-11T03:30:02.975Z,4.60
2023-01-11T03:31:02.900Z,4.60
2023-01-11T03:32:02.858Z,4.60
2023-01-11T03:33:02.775Z,4.60
2023-01-11T03:34:02.676Z,4.60
2023-01-11T03:35:02.690Z,4.60
2023-01-11T03:36:03.536Z,4.60
2023-01-11T03:37:03.495Z,4.60
2023-01-11T03:38:03.434Z,4.60
2023-01-11T03:39:03.406Z,4.70
2023-01-11T03:40:03.409Z,4.70
2023-01-11T03:41:03.283Z,4.70
2023-01-11T03:42:03.125Z,4.60
2023-01-11T03:43:03.216Z,4.70
2023-01-11T03:44:03.053Z,4.70
2023-01-11T03:45:03.059Z,4.70
2023-01-11T03:46:02.976Z,4.70
2023-01-11T03:47:03.143Z,4.70
2023-01-11T03:48:02.952Z,4.70
2023-01-11T03:49:02.813Z,4.70
2023-01-11T03:50:02.864Z,4.70
2023-01-11T03:51:02.752Z,4.70
2023-01-11T03:52:02.755Z,4.70
2023-01-11T03:53:02.691Z,4.70
2023-01-11T03:54:02.601Z,4.70
2023-01-11T03:55:03.582Z,4.70
2023-01-11T03:56:03.444Z,4.70
2023-01-11T03:57:03.411Z,4.70
2023-01-11T03:58:03.340Z,4.70
2023-01-11T03:59:03.317Z,4.70
2023-01-11T04:00:03.355Z,4.70
2023-01-11T04:01:03.345Z,4.70
2023-01-11T04:02:03.318Z,4.70
2023-01-11T04:03:03.237Z,4.70
2023-01-11T04:04:03.154Z,4.70
2023-01-11T04:05:03.105Z,4.70
2023-01-11T04:06:03.051Z,4.70
2023-01-11T04:07:03.107Z,4.70
2023-01-11T04:08:03.022Z,4.70
2023-01-11T04:09:02.893Z,4.80
2023-01-11T04:10:02.743Z,4.80
2023-01-11T04:11:02.745Z,4.80
2023-01-11T04:12:02.822Z,4.80
2023-01-11T04:13:02.626Z,4.80
2023-01-11T04:14:02.644Z,4.80
2023-01-11T04:15:03.612Z,4.80
2023-01-11T04:16:03.493Z,4.80
2023-01-11T04:17:03.506Z,4.80
2023-01-11T04:18:03.487Z,4.80
2023-01-11T04:19:03.476Z,4.80
2023-01-11T04:20:03.415Z,4.80
2023-01-11T04:21:03.273Z,4.80
2023-01-11T04:22:03.291Z,4.80
2023-01-11T04:23:03.257Z,4.80
2023-01-11T04:24:03.219Z,4.80
2023-01-11T04:25:03.244Z,4.80
2023-01-11T04:26:03.234Z,4.90
2023-01-11T04:27:03.324Z,4.90
2023-01-11T04:28:03.145Z,4.90
2023-01-11T04:29:03.074Z,4.90
2023-01-11T04:30:02.994Z,4.90
2023-01-11T04:31:03.039Z,4.90
2023-01-11T04:32:02.940Z,4.90
2023-01-11T04:33:02.931Z,4.90
2023-01-11T04:34:02.979Z,4.90
2023-01-11T04:35:02.875Z,4.90
2023-01-11T04:36:02.898Z,4.90
2023-01-11T04:37:02.841Z,4.90
2023-01-11T04:38:02.747Z,4.90
2023-01-11T04:39:02.591Z,5.00
2023-01-11T04:40:03.545Z,5.00
2023-01-11T04:41:03.434Z,5.00
2023-01-11T04:42:03.417Z,5.00
2023-01-11T04:43:03.339Z,5.00
2023-01-11T04:44:03.263Z,5.00
2023-01-11T04:45:03.114Z,5.00
2023-01-11T04:46:03.039Z,5.00
2023-01-11T04:47:02.863Z,5.00
2023-01-11T04:48:03.090Z,5.00
2023-01-11T04:49:03.046Z,5.00
2023-01-11T04:50:03.011Z,5.00
2023-01-11T04:51:03.022Z,5.00
2023-01-11T04:52:03.010Z,5.00
2023-01-11T04:53:02.960Z,5.00
2023-01-11T04:54:03.000Z,5.00
2023-01-11T04:55:02.946Z,5.00
2023-01-11T04:56:02.799Z,5.00
2023-01-11T04:57:02.821Z,5.00
2023-01-11T04:58:02.615Z,5.00
2023-01-11T04:59:03.457Z,5.00
2023-01-11T05:00:03.391Z,5.00
2023-01-11T05:01:03.391Z,5.00
2023-01-11T05:02:03.352Z,5.00
2023-01-11T05:03:03.301Z,5.00
2023-01-11T05:04:03.354Z,5.00
2023-01-11T05:05:03.190Z,5.00
2023-01-11T05:06:03.124Z,5.00
2023-01-11T05:07:03.153Z,5.00
2023-01-11T05:08:02.961Z,5.00
2023-01-11T05:09:03.047Z,5.00
2023-01-11T05:10:02.951Z,5.00
2023-01-11T05:11:02.911Z,5.00
2023-01-11T05:12:02.861Z,5.00
2023-01-11T05:13:02.824Z,5.00
2023-01-11T05:14:02.841Z,5.00
2023-01-11T05:15:02.699Z,5.00
2023-01-11T05:16:02.652Z,5.00
2023-01-11T05:17:02.670Z,5.00
2023-01-11T05:18:03.619Z,5.10
2023-01-11T05:19:03.533Z,5.10
2023-01-11T05:20:03.483Z,5.10
2023-01-11T05:21:03.336Z,5.10
2023-01-11T05:22:03.229Z,5.10
2023-01-11T05:23:03.325Z,5.10
2023-01-11T05:24:03.285Z,5.10
2023-01-11T05:25:03.353Z,5.10
2023-01-11T05:26:03.300Z,5.20
2023-01-11T05:27:03.099Z,5.20
2023-01-11T05:28:03.089Z,5.20
2023-01-11T05:29:03.051Z,5.20
2023-01-11T05:30:02.955Z,5.20
2023-01-11T05:31:02.935Z,5.20
2023-01-11T05:32:02.855Z,5.20
2023-01-11T05:33:02.883Z,5.20
2023-01-11T05:34:02.701Z,5.20
2023-01-11T05:35:02.609Z,5.30
2023-01-11T05:36:03.531Z,5.30
2023-01-11T05:37:03.538Z,5.30
2023-01-11T05:38:02.813Z,5.30
2023-01-11T05:39:02.752Z,5.30
2023-01-11T05:40:02.691Z,5.30
2023-01-11T05:41:02.694Z,5.30
2023-01-11T05:42:02.594Z,5.30
2023-01-11T05:43:02.764Z,5.30
2023-01-11T05:44:03.564Z,5.40
2023-01-11T05:45:02.593Z,5.30
2023-01-11T05:46:03.365Z,5.30
2023-01-11T05:47:03.405Z,5.30
2023-01-11T05:48:03.415Z,5.40
2023-01-11T05:49:03.213Z,5.40
2023-01-11T05:50:03.126Z,5.40
2023-01-11T05:51:03.171Z,5.40
2023-01-11T05:52:03.089Z,5.40
2023-01-11T05:53:03.161Z,5.40
2023-01-11T05:54:02.984Z,5.40
2023-01-11T05:55:02.982Z,5.40
2023-01-11T05:56:02.778Z,5.40
2023-01-11T05:57:02.895Z,5.40
2023-01-11T05:58:02.874Z,5.40
2023-01-11T05:59:02.654Z,5.40
2023-01-11T06:00:02.583Z,5.40
2023-01-11T06:01:03.651Z,5.40
2023-01-11T06:02:03.504Z,5.40
2023-01-11T06:03:03.528Z,5.40
2023-01-11T06:04:03.379Z,5.40
2023-01-11T06:05:03.300Z,5.40
2023-01-11T06:06:03.153Z,5.40
2023-01-11T06:07:03.188Z,5.40
2023-01-11T06:08:03.041Z,5.40
2023-01-11T06:09:03.053Z,5.40
2023-01-11T06:10:02.960Z,5.40
2023-01-11T06:11:03.368Z,5.40
2023-01-11T06:12:02.878Z,5.40
2023-01-11T06:13:02.835Z,5.40
2023-01-11T06:14:02.856Z,5.40
2023-01-11T06:15:02.764Z,5.40
2023-01-11T06:16:02.810Z,5.40
2023-01-11T06:17:02.790Z,5.40
2023-01-11T06:18:02.750Z,5.40
2023-01-11T06:19:02.611Z,5.40
2023-01-11T06:20:03.311Z,5.40
2023-01-11T06:21:03.266Z,5.40
2023-01-11T06:22:03.132Z,5.40
2023-01-11T06:23:03.028Z,5.40
2023-01-11T06:24:03.026Z,5.40
2023-01-11T06:25:02.893Z,5.40
2023-01-11T06:26:02.856Z,5.40
2023-01-11T06:27:02.706Z,5.50
2023-01-11T06:28:02.733Z,5.50
2023-01-11T06:29:03.106Z,5.50
2023-01-11T06:30:02.962Z,5.50
2023-01-11T06:31:03.078Z,5.50
2023-01-11T06:32:02.882Z,5.50
2023-01-11T06:33:02.862Z,5.50
2023-01-11T06:34:02.844Z,5.50
2023-01-11T06:35:02.769Z,5.50
2023-01-11T06:36:02.675Z,5.50
2023-01-11T06:37:02.718Z,5.50
2023-01-11T06:38:02.612Z,5.50
2023-01-11T06:39:03.076Z,5.60
2023-01-11T06:40:03.107Z,5.50
2023-01-11T06:41:03.048Z,5.50
2023-01-11T06:42:02.909Z,5.50
2023-01-11T06:43:02.889Z,5.50
2023-01-11T06:44:02.754Z,5.60
2023-01-11T06:45:02.727Z,5.60
2023-01-11T06:46:02.703Z,5.60
2023-01-11T06:47:02.609Z,5.60
2023-01-11T06:48:03.616Z,5.60
2023-01-11T06:49:03.560Z,5.60
2023-01-11T06:50:03.464Z,5.60
2023-01-11T06:51:03.312Z,5.60
2023-01-11T06:52:03.374Z,5.60
2023-01-11T06:53:03.291Z,5.60
2023-01-11T06:54:03.313Z,5.60
2023-01-11T06:55:03.265Z,5.60
2023-01-11T06:56:03.223Z,5.60
2023-01-11T06:57:03.157Z,5.70
2023-01-11T06:58:03.063Z,5.70
2023-01-11T06:59:03.124Z,5.70
2023-01-11T07:00:02.987Z,5.70
2023-01-11T07:01:02.961Z,5.70
2023-01-11T07:02:02.844Z,5.70
2023-01-11T07:03:02.739Z,5.70
2023-01-11T07:04:02.815Z,5.80
2023-01-11T07:05:02.925Z,5.80
2023-01-11T07:06:02.797Z,5.80
2023-01-11T07:07:02.682Z,5.80
2023-01-11T07:08:02.723Z,5.80
2023-01-11T07:09:02.660Z,5.80
2023-01-11T07:10:03.559Z,5.80
2023-01-11T07:11:03.495Z,5.90
2023-01-11T07:12:03.468Z,5.90
2023-01-11T07:13:03.458Z,5.90
2023-01-11T07:14:03.382Z,5.90
2023-01-11T07:15:03.271Z,5.90
2023-01-11T07:16:03.289Z,5.90
2023-01-11T07:17:03.265Z,5.90
2023-01-11T07:18:03.205Z,5.90
2023-01-11T07:19:03.201Z,5.90
2023-01-11T07:20:03.067Z,5.90
2023-01-11T07:21:03.022Z,6.00
2023-01-11T07:22:03.052Z,6.00
2023-01-11T07:23:03.061Z,6.00
2023-01-11T07:24:03.063Z,6.00
2023-01-11T07:25:02.638Z,6.00
2023-01-11T07:26:03.559Z,6.00
2023-01-11T07:27:03.586Z,6.00
2023-01-11T07:28:03.516Z,6.00
2023-01-11T07:29:03.419Z,6.00
2023-01-11T07:30:03.439Z,6.00
2023-01-11T07:31:03.352Z,6.00
2023-01-11T07:32:03.236Z,6.00
2023-01-11T07:33:03.141Z,6.00
2023-01-11T07:34:03.164Z,6.00
2023-01-11T07:35:03.253Z,6.00
2023-01-11T07:36:03.117Z,6.10
2023-01-11T07:37:03.082Z,6.00
2023-01-11T07:38:03.078Z,6.00
2023-01-11T07:39:03.055Z,6.00
2023-01-11T07:40:03.016Z,6.00
2023-01-11T07:41:02.975Z,6.00
2023-01-11T07:42:03.027Z,6.10
2023-01-11T07:43:02.952Z,6.10
2023-01-11T07:44:02.932Z,6.10
2023-01-11T07:45:03.116Z,6.10
2023-01-11T07:46:03.031Z,6.10
2023-01-11T07:47:02.885Z,6.10
2023-01-11T07:48:02.854Z,6.10
2023-01-11T07:49:02.882Z,6.10
2023-01-11T07:50:02.868Z,6.10
2023-01-11T07:51:02.681Z,6.10
2023-01-11T07:52:02.712Z,6.10
2023-01-11T07:53:02.705Z,6.20
2023-01-11T07:54:02.762Z,6.20
2023-01-11T07:55:02.970Z,6.20
2023-01-11T07:56:02.635Z,6.20
2023-01-11T07:57:02.651Z,6.20
2023-01-11T07:58:03.528Z,6.20
2023-01-11T07:59:03.534Z,6.30
2023-01-11T08:00:03.550Z,6.30
2023-01-11T08:01:03.391Z,6.30
2023-01-11T08:02:03.342Z,6.30
2023-01-11T08:03:03.444Z,6.40
2023-01-11T08:04:03.418Z,6.40
2023-01-11T08:05:03.526Z,6.40
2023-01-11T08:06:03.279Z,6.40
2023-01-11T08:07:03.216Z,6.40
2023-01-11T08:08:03.262Z,6.50
2023-01-11T08:09:03.173Z,6.50
2023-01-11T08:10:03.128Z,6.50
2023-01-11T08:11:04.902Z,6.50
2023-01-11T08:12:02.927Z,6.50
2023-01-11T08:13:02.926Z,6.50
2023-01-11T08:14:02.934Z,6.60
2023-01-11T08:15:02.892Z,6.60
2023-01-11T08:16:02.862Z,6.60
2023-01-11T08:17:02.732Z,6.60
2023-01-11T08:18:02.667Z,6.60
2023-01-11T08:19:02.710Z,6.60
2023-01-11T08:20:02.719Z,6.60
2023-01-11T08:21:02.679Z,6.60
2023-01-11T08:22:02.664Z,6.70
2023-01-11T08:23:03.615Z,6.70
2023-01-11T08:24:03.522Z,6.70
2023-01-11T08:25:03.491Z,6.70
2023-01-11T08:26:03.384Z,6.70
2023-01-11T08:27:03.454Z,6.70
2023-01-11T08:28:03.427Z,6.70
2023-01-11T08:29:03.265Z,6.80
2023-01-11T08:30:03.412Z,6.80
2023-01-11T08:31:03.364Z,6.80
2023-01-11T08:32:03.180Z,6.80
2023-01-11T08:33:03.131Z,6.80
2023-01-11T08:34:03.047Z,6.80
2023-01-11T08:35:03.036Z,6.80
2023-01-11T08:36:03.011Z,6.80
2023-01-11T08:37:02.886Z,6.80
2023-01-11T08:38:02.826Z,6.80
2023-01-11T08:39:02.790Z,6.80
2023-01-11T08:40:02.724Z,6.80
2023-01-11T08:41:02.855Z,6.90
2023-01-11T08:42:02.739Z,6.90
2023-01-11T08:43:02.626Z,6.90
2023-01-11T08:44:03.531Z,6.90
2023-01-11T08:45:03.485Z,6.90
2023-01-11T08:46:03.538Z,6.90
2023-01-11T08:47:02.727Z,6.90
2023-01-11T08:48:02.686Z,6.90
2023-01-11T08:49:02.592Z,6.90
2023-01-11T08:50:03.584Z,6.90
2023-01-11T08:51:03.537Z,6.90
2023-01-11T08:52:03.406Z,6.90
2023-01-11T08:53:03.360Z,6.90
2023-01-11T08:54:03.239Z,7.00
2023-01-11T08:55:03.167Z,7.00
2023-01-11T08:56:03.196Z,7.00
2023-01-11T08:57:03.076Z,7.00
2023-01-11T08:58:02.991Z,7.00
2023-01-11T08:59:02.989Z,7.00
2023-01-11T09:00:03.065Z,7.00
2023-01-11T09:01:03.077Z,7.00
2023-01-11T09:02:02.979Z,7.00
2023-01-11T09:03:02.964Z,7.10
2023-01-11T09:04:07.121Z,7.10
2023-01-11T09:05:02.806Z,7.10
2023-01-11T09:06:02.721Z,7.10
2023-01-11T09:07:02.633Z,7.10
2023-01-11T09:08:03.515Z,7.10
2023-01-11T09:09:03.489Z,7.10
2023-01-11T09:10:03.420Z,7.20
2023-01-11T09:11:03.409Z,7.20
2023-01-11T09:12:05.558Z,7.20
2023-01-11T09:13:03.488Z,7.20
2023-01-11T09:14:03.397Z,7.20
2023-01-11T09:15:03.240Z,7.20
2023-01-11T09:16:03.455Z,7.30
2023-01-11T09:17:03.248Z,7.30
2023-01-11T09:18:03.289Z,7.30
2023-01-11T09:19:03.323Z,7.30
2023-01-11T09:20:03.278Z,7.30
2023-01-11T09:21:03.279Z,7.40
2023-01-11T09:22:03.142Z,7.40
2023-01-11T09:23:03.098Z,7.40
2023-01-11T09:24:03.156Z,7.40
2023-01-11T09:25:03.017Z,7.40
2023-01-11T09:26:03.203Z,7.50
2023-01-11T09:27:03.062Z,7.50
2023-01-11T09:28:02.966Z,7.50
2023-01-11T09:29:02.886Z,7.50
2023-01-11T09:30:02.860Z,7.60
2023-01-11T09:31:02.875Z,7.60
2023-01-11T09:32:02.815Z,7.60
2023-01-11T09:33:02.698Z,7.60
2023-01-11T09:34:03.600Z,7.60
2023-01-11T09:35:03.452Z,7.60
2023-01-11T09:36:03.408Z,7.70
2023-01-11T09:37:03.362Z,7.70
2023-01-11T09:38:03.266Z,7.70
2023-01-11T09:39:03.271Z,7.70
2023-01-11T09:40:03.280Z,7.80
2023-01-11T09:41:03.339Z,7.80
2023-01-11T09:42:03.395Z,7.80
2023-01-11T09:43:03.379Z,7.80
2023-01-11T09:44:03.232Z,7.80
2023-01-11T09:45:03.288Z,7.90
2023-01-11T09:46:03.343Z,7.90
2023-01-11T09:47:03.373Z,7.90
2023-01-11T09:48:03.191Z,8.00
2023-01-11T09:49:03.105Z,8.00
2023-01-11T09:50:03.061Z,8.00
2023-01-11T09:51:03.118Z,8.00
2023-01-11T09:52:02.993Z,8.10
2023-01-11T09:53:03.029Z,8.10
2023-01-11T09:54:02.869Z,8.10
2023-01-11T09:55:02.988Z,8.10
2023-01-11T09:56:02.930Z,8.20
2023-01-11T09:57:02.910Z,8.20
2023-01-11T09:58:02.742Z,8.20
2023-01-11T09:59:02.781Z,8.20
2023-01-11T10:00:02.639Z,8.20
2023-01-11T10:01:02.725Z,8.30
2023-01-11T10:02:03.590Z,8.30
2023-01-11T10:03:03.558Z,8.30
2023-01-11T10:04:03.525Z,8.30
2023-01-11T10:05:03.506Z,8.30
2023-01-11T10:06:03.498Z,8.30
2023-01-11T10:07:03.434Z,8.40
2023-01-11T10:18:23.860Z,8.50
2023-01-11T10:18:24.450Z,8.50
2023-01-11T10:18:24.925Z,8.50
2023-01-11T10:18:35.027Z,8.50
2023-01-11T10:19:31.399Z,8.60
2023-01-11T10:20:03.615Z,8.60
2023-01-11T10:21:03.421Z,8.60
2023-01-11T10:22:03.562Z,8.60
2023-01-11T10:23:03.462Z,8.60
2023-01-11T10:24:03.441Z,8.60
2023-01-11T10:25:03.334Z,8.60
2023-01-11T10:26:03.368Z,8.60
2023-01-11T10:27:03.253Z,8.60
2023-01-11T10:28:03.107Z,8.60
2023-01-11T10:29:03.079Z,8.60
2023-01-11T10:30:03.011Z,8.60
2023-01-11T10:31:02.911Z,8.60
2023-01-11T10:32:02.867Z,8.60
2023-01-11T10:33:02.918Z,8.60
2023-01-11T10:34:02.864Z,8.60
2023-01-11T10:35:02.777Z,8.60
2023-01-11T10:36:02.671Z,8.60
2023-01-11T10:37:02.631Z,8.60
2023-01-11T10:38:02.595Z,8.60
2023-01-11T10:39:02.602Z,8.60
2023-01-11T10:40:03.640Z,8.60
2023-01-11T10:41:03.532Z,8.60
2023-01-11T10:42:03.537Z,8.50
2023-01-11T10:43:03.580Z,8.50
2023-01-11T10:44:03.388Z,8.50
2023-01-11T10:45:03.520Z,8.50
2023-01-11T10:46:03.417Z,8.50
2023-01-11T10:47:03.448Z,8.50
2023-01-11T10:48:03.357Z,8.50
2023-01-11T10:49:03.279Z,8.40
2023-01-11T10:50:05.142Z,8.50
2023-01-11T10:51:03.157Z,8.40
2023-01-11T10:52:03.119Z,8.40
2023-01-11T10:53:03.129Z,8.40
2023-01-11T10:54:03.013Z,8.40
2023-01-11T10:55:02.972Z,8.40
2023-01-11T10:56:02.883Z,8.30
2023-01-11T10:57:04.557Z,8.30
2023-01-11T10:58:02.860Z,8.30
2023-01-11T10:59:02.863Z,8.30
2023-01-11T11:00:02.813Z,8.30
2023-01-11T11:01:02.925Z,8.30
2023-01-11T11:02:03.099Z,8.30
2023-01-11T11:03:02.924Z,8.30
2023-01-11T11:04:02.881Z,8.30
2023-01-11T11:05:02.826Z,8.20
2023-01-11T11:06:03.089Z,8.20
2023-01-11T11:07:03.000Z,8.20
2023-01-11T11:08:03.060Z,8.20
2023-01-11T11:09:02.977Z,8.20
2023-01-11T11:10:02.927Z,8.20
2023-01-11T11:11:03.003Z,8.20
2023-01-11T11:12:02.854Z,8.20
2023-01-11T11:13:02.888Z,8.20
2023-01-11T11:14:02.760Z,8.10
2023-01-11T11:15:02.770Z,8.20
2023-01-11T11:16:02.657Z,8.10
2023-01-11T11:17:02.659Z,8.10
2023-01-11T11:18:02.780Z,8.10
2023-01-11T11:19:02.688Z,8.10
2023-01-11T11:20:02.692Z,8.10
2023-01-11T11:21:02.576Z,8.10
2023-01-11T11:22:02.663Z,8.10
2023-01-11T11:23:03.639Z,8.10
2023-01-11T11:24:03.498Z,8.10
2023-01-11T11:25:03.530Z,8.10
2023-01-11T11:26:03.541Z,8.10
2023-01-11T11:27:03.676Z,8.10
2023-01-11T11:28:03.494Z,8.10
2023-01-11T11:29:03.487Z,8.10
2023-01-11T11:30:03.540Z,8.10
2023-01-11T11:31:03.450Z,8.10
2023-01-11T11:32:03.527Z,8.10
2023-01-11T11:33:03.425Z,8.10
2023-01-11T11:34:03.374Z,8.10
2023-01-11T11:35:03.381Z,8.10
2023-01-11T11:36:03.324Z,8.10
2023-01-11T11:37:03.211Z,8.10
2023-01-11T11:38:03.167Z,8.10
2023-01-11T11:39:03.111Z,8.10
2023-01-11T11:40:03.072Z,8.10
2023-01-11T11:41:03.006Z,8.10
2023-01-11T11:42:02.983Z,8.10
2023-01-11T11:43:02.982Z,8.10
2023-01-11T11:44:02.808Z,8.10
2023-01-11T11:45:02.713Z,8.10
2023-01-11T11:46:02.795Z,8.10
2023-01-11T11:47:02.638Z,8.10
2023-01-11T11:48:02.593Z,8.10
2023-01-11T11:49:02.686Z,8.10
2023-01-11T11:50:02.596Z,8.10
2023-01-11T11:51:03.565Z,8.20
2023-01-11T11:52:03.520Z,8.20
2023-01-11T11:53:03.393Z,8.20
2023-01-11T11:54:03.357Z,8.20
2023-01-11T11:55:03.200Z,8.20
2023-01-11T11:56:03.124Z,8.20
2023-01-11T11:57:03.150Z,8.20
2023-01-11T11:58:03.103Z,8.20
2023-01-11T11:59:02.970Z,8.20
2023-01-11T12:00:02.801Z,8.20
2023-01-11T12:01:02.865Z,8.20
2023-01-11T12:02:03.015Z,8.20
2023-01-11T12:03:02.848Z,8.20
2023-01-11T12:04:03.081Z,8.20
2023-01-11T12:05:02.952Z,8.20
2023-01-11T12:06:02.968Z,8.20
2023-01-11T12:07:02.750Z,8.20
2023-01-11T12:08:02.751Z,8.20
2023-01-11T12:09:02.787Z,8.20
2023-01-11T12:10:02.648Z,8.20
2023-01-11T12:11:02.642Z,8.20
2023-01-11T12:12:03.584Z,8.20
2023-01-11T12:13:03.606Z,8.20
2023-01-11T12:14:03.586Z,8.30
2023-01-11T12:15:03.573Z,8.30
2023-01-11T12:16:03.617Z,8.30
2023-01-11T12:17:03.681Z,8.30
2023-01-11T12:18:03.442Z,8.30
2023-01-11T12:19:03.461Z,8.30
2023-01-11T12:20:03.397Z,8.30
2023-01-11T12:21:03.368Z,8.30
2023-01-11T12:22:03.217Z,8.30
2023-01-11T12:23:03.158Z,8.30
2023-01-11T12:24:03.190Z,8.30
2023-01-11T12:25:03.171Z,8.30
2023-01-11T12:26:03.093Z,8.30
2023-01-11T12:27:03.187Z,8.30
2023-01-11T12:28:03.092Z,8.30
2023-01-11T12:29:03.034Z,8.30
2023-01-11T12:30:02.931Z,8.30
2023-01-11T12:31:03.114Z,8.30
2023-01-11T12:32:03.022Z,8.30
2023-01-11T12:33:02.997Z,8.30
2023-01-11T12:34:02.970Z,8.30
2023-01-11T12:35:02.851Z,8.30
2023-01-11T12:36:03.429Z,8.30
2023-01-11T12:37:02.681Z,8.30
2023-01-11T12:38:02.586Z,8.30
2023-01-11T12:39:02.995Z,8.30
2023-01-11T12:40:02.959Z,8.30
2023-01-11T12:41:02.979Z,8.30
2023-01-11T12:42:02.938Z,8.30
2023-01-11T12:43:02.899Z,8.30
2023-01-11T12:44:02.859Z,8.30
2023-01-11T12:45:02.713Z,8.30
2023-01-11T12:46:02.699Z,8.30
2023-01-11T12:47:03.599Z,8.30
2023-01-11T12:48:03.578Z,8.30
2023-01-11T12:49:03.552Z,8.30
2023-01-11T12:50:03.443Z,8.30
2023-01-11T12:51:03.450Z,8.40
2023-01-11T12:52:03.417Z,8.40
2023-01-11T12:53:03.364Z,8.40
2023-01-11T12:54:03.299Z,8.40
2023-01-11T12:55:03.257Z,8.40
2023-01-11T12:56:03.121Z,8.40
2023-01-11T12:57:03.037Z,8.40
2023-01-11T12:58:03.060Z,8.40
2023-01-11T12:59:02.980Z,8.40
2023-01-11T13:00:03.072Z,8.40
2023-01-11T13:01:02.951Z,8.40
2023-01-11T13:02:02.789Z,8.40
2023-01-11T13:03:02.811Z,8.40
2023-01-11T13:04:02.749Z,8.40
2023-01-11T13:05:02.776Z,8.40
2023-01-11T13:06:02.613Z,8.40
2023-01-11T13:07:03.483Z,8.40
2023-01-11T13:08:03.569Z,8.40
2023-01-11T13:09:03.400Z,8.40
2023-01-11T13:10:03.291Z,8.40
2023-01-11T13:11:03.256Z,8.40
2023-01-11T13:12:03.269Z,8.40
2023-01-11T13:13:03.155Z,8.40
2023-01-11T13:14:03.101Z,8.40
2023-01-11T13:15:03.080Z,8.40
2023-01-11T13:16:02.986Z,8.40
2023-01-11T13:17:02.997Z,8.40
2023-01-11T13:18:02.819Z,8.40
2023-01-11T13:19:02.852Z,8.40
2023-01-11T13:20:02.878Z,8.40
2023-01-11T13:21:03.958Z,8.40
2023-01-11T13:22:02.736Z,8.40
2023-01-11T13:23:02.633Z,8.40
2023-01-11T13:24:03.617Z,8.40
2023-01-11T13:25:03.582Z,8.40